Time;durP1;ratioP1;P1;durP2;ratioP2;P2;SDS_P1;SDS_P2;PMS_P1;PMS_P2;Temp;Humidity;BMP_temperature;BMP_pressure;BME280_temperature;BME280_humidity;BME280_pressure;Samples;Min_cycle;Max_cycle;Signal;HPM_P1;HPM_P2
2023/02/04 00:00:12;;;;;;;1.40;1.40;;;10.90;99.90;;;;;;5055367;28;20804;-73
2023/02/04 00:02:39;;;;;;;1.20;1.20;;;10.80;99.90;;;;;;5054171;28;20257;-74
2023/02/04 00:05:09;;;;;;;1.95;1.67;;;10.80;99.90;;;;;;5046291;28;20951;-74
2023/02/04 00:07:36;;;;;;;1.27;1.27;;;10.80;99.90;;;;;;5051183;28;20306;-74
2023/02/04 00:10:05;;;;;;;1.83;1.45;;;10.80;99.90;;;;;;5030069;28;20301;-74
2023/02/04 00:12:32;;;;;;;1.48;1.30;;;10.70;99.90;;;;;;5049591;28;20745;-74
2023/02/04 00:14:59;;;;;;;1.40;1.30;;;10.70;99.90;;;;;;5059529;28;20219;-74
2023/02/04 00:17:26;;;;;;;1.17;1.17;;;10.70;99.90;;;;;;5054173;28;20301;-74
2023/02/04 00:19:53;;;;;;;1.45;1.35;;;10.70;99.90;;;;;;5053871;28;20298;-74
2023/02/04 00:22:22;;;;;;;1.33;1.30;;;10.70;99.90;;;;;;5048651;28;20287;-74
2023/02/04 00:24:49;;;;;;;1.17;1.17;;;10.70;99.90;;;;;;5052474;28;20305;-74
2023/02/04 00:27:16;;;;;;;1.30;1.30;;;10.70;99.90;;;;;;5047106;28;20294;-74
2023/02/04 00:29:43;;;;;;;1.45;1.35;;;10.70;99.90;;;;;;5047914;28;20305;-74
2023/02/04 00:32:10;;;;;;;1.10;1.10;;;10.70;99.90;;;;;;5049898;28;20282;-74
2023/02/04 00:34:37;;;;;;;1.08;1.08;;;10.70;99.90;;;;;;5049530;28;20306;-74
2023/02/04 00:37:05;;;;;;;1.48;1.38;;;10.60;99.90;;;;;;5044071;28;20306;-74
2023/02/04 00:39:33;;;;;;;1.20;1.20;;;10.70;99.90;;;;;;5028580;28;20243;-74
2023/02/04 00:42:00;;;;;;;1.30;1.27;;;10.70;99.90;;;;;;5031192;28;20199;-74
2023/02/04 00:44:27;;;;;;;3.42;1.10;;;10.70;99.90;;;;;;5052623;28;20302;-74
2023/02/04 00:46:54;;;;;;;1.35;1.35;;;10.80;99.90;;;;;;5053663;28;20302;-74
2023/02/04 00:49:21;;;;;;;1.38;1.30;;;10.70;99.90;;;;;;5050676;28;20289;-73
2023/02/04 00:51:49;;;;;;;1.20;1.10;;;10.70;99.90;;;;;;5057361;28;22093;-72
2023/02/04 00:54:15;;;;;;;1.50;1.17;;;10.70;99.90;;;;;;5050729;28;21012;-73
2023/02/04 00:56:44;;;;;;;1.40;1.35;;;10.60;99.90;;;;;;5050987;28;20302;-72
2023/02/04 00:59:11;;;;;;;1.20;1.10;;;10.60;99.90;;;;;;5028667;28;20226;-72
2023/02/04 01:01:38;;;;;;;1.20;1.20;;;10.50;99.90;;;;;;5053038;28;20724;-73
2023/02/04 01:04:05;;;;;;;1.42;1.33;;;10.50;99.90;;;;;;5049716;28;20302;-73
2023/02/04 01:06:32;;;;;;;1.17;1.17;;;10.40;99.90;;;;;;5034892;28;20329;-73
2023/02/04 01:09:00;;;;;;;1.23;1.23;;;10.30;99.90;;;;;;5029122;28;20206;-72
2023/02/04 01:11:27;;;;;;;1.50;1.40;;;10.20;99.90;;;;;;5029497;28;20224;-72
2023/02/04 01:13:56;;;;;;;1.15;1.15;;;10.10;99.90;;;;;;5049298;28;20739;-72
2023/02/04 01:16:23;;;;;;;4.53;1.30;;;10.10;99.90;;;;;;5047947;28;20301;-73
2023/02/04 01:18:50;;;;;;;1.52;1.42;;;10.20;99.90;;;;;;5050878;28;20664;-73
2023/02/04 01:21:17;;;;;;;1.20;1.20;;;10.40;99.90;;;;;;5051576;28;20324;-73
2023/02/04 01:23:44;;;;;;;1.40;1.40;;;10.50;99.90;;;;;;5054671;28;20305;-72
2023/02/04 01:26:11;;;;;;;1.25;1.25;;;10.60;99.90;;;;;;5054015;28;20957;-72
2023/02/04 01:28:38;;;;;;;1.42;1.20;;;10.60;99.90;;;;;;5058466;28;20282;-73
2023/02/04 01:31:07;;;;;;;1.25;1.25;;;10.60;99.90;;;;;;5046014;28;20298;-73
2023/02/04 01:33:34;;;;;;;1.10;1.10;;;10.50;99.90;;;;;;5053632;28;20672;-73
2023/02/04 01:36:01;;;;;;;1.17;1.17;;;10.60;99.90;;;;;;5054382;28;20293;-73
2023/02/04 01:38:28;;;;;;;1.10;1.10;;;10.90;99.90;;;;;;5053801;28;20282;-73
2023/02/04 01:40:55;;;;;;;1.95;1.42;;;11.10;99.90;;;;;;5051418;28;20298;-73
2023/02/04 01:43:22;;;;;;;1.20;1.20;;;11.30;99.90;;;;;;5052717;28;20282;-74
2023/02/04 01:45:50;;;;;;;1.20;1.20;;;11.40;99.90;;;;;;5049017;28;20321;-74
2023/02/04 01:48:20;;;;;;;1.17;1.17;;;11.50;99.90;;;;;;5050620;28;20875;-74
2023/02/04 01:50:48;;;;;;;1.33;1.33;;;11.60;99.90;;;;;;5053487;28;20321;-74
2023/02/04 01:53:18;;;;;;;1.20;1.20;;;11.60;99.90;;;;;;5051029;28;20237;-74
2023/02/04 01:55:45;;;;;;;2.50;1.35;;;11.60;99.90;;;;;;5050153;28;20293;-74
2023/02/04 01:58:13;;;;;;;1.23;1.23;;;11.60;99.90;;;;;;5051170;28;20301;-74
2023/02/04 02:00:40;;;;;;;1.58;0.75;;;11.60;99.90;;;;;;5031359;28;20249;-74
2023/02/04 02:03:09;;;;;;;0.90;0.90;;;11.60;99.90;;;;;;5049377;28;20286;-72
2023/02/04 02:05:43;;;;;;;1.00;1.00;;;11.60;99.90;;;;;;5046236;28;20222;-72
2023/02/04 02:08:12;;;;;;;0.90;0.90;;;11.60;99.90;;;;;;5050616;28;20241;-74
2023/02/04 02:10:41;;;;;;;1.10;1.10;;;11.60;99.90;;;;;;5053087;28;20309;-74
2023/02/04 02:13:10;;;;;;;1.10;1.10;;;11.60;99.90;;;;;;5050436;28;20281;-74
2023/02/04 02:15:37;;;;;;;0.95;0.95;;;11.50;99.90;;;;;;5048552;28;20759;-73
2023/02/04 02:18:05;;;;;;;1.13;1.13;;;11.50;99.90;;;;;;5053314;28;20309;-73
2023/02/04 02:20:32;;;;;;;0.93;0.93;;;11.50;99.90;;;;;;5055917;28;20321;-73
2023/02/04 02:23:11;;;;;;;1.10;1.10;;;11.40;99.90;;;;;;5047701;28;20286;-73
2023/02/04 02:25:40;;;;;;;1.10;1.10;;;11.40;99.90;;;;;;5028925;28;20302;-74
2023/02/04 02:28:11;;;;;;;1.20;1.20;;;11.30;99.90;;;;;;5033398;28;20215;-74
2023/02/04 02:30:38;;;;;;;1.20;1.20;;;11.30;99.90;;;;;;5056039;28;20308;-73
2023/02/04 02:33:06;;;;;;;0.73;0.73;;;11.20;99.90;;;;;;5044520;28;20277;-73
2023/02/04 02:35:33;;;;;;;0.80;0.80;;;11.10;99.90;;;;;;5059808;28;20626;-73
2023/02/04 02:38:01;;;;;;;1.10;1.10;;;11.10;99.90;;;;;;5051328;28;20248;-73
2023/02/04 02:40:28;;;;;;;1.20;1.20;;;11.00;99.90;;;;;;5031858;28;20700;-74
2023/02/04 02:42:56;;;;;;;2.30;1.15;;;11.10;99.90;;;;;;5031988;28;20213;-73
2023/02/04 02:45:25;;;;;;;1.02;1.00;;;11.10;99.90;;;;;;5053360;28;20639;-74
2023/02/04 02:47:53;;;;;;;1.02;1.02;;;11.10;99.90;;;;;;5055820;28;20305;-73
2023/02/04 02:50:24;;;;;;;1.05;1.05;;;11.10;99.90;;;;;;5049270;28;20303;-74
2023/02/04 02:52:52;;;;;;;1.30;1.30;;;11.10;99.90;;;;;;5050437;28;20740;-74
2023/02/04 02:55:21;;;;;;;1.02;1.02;;;11.00;99.90;;;;;;5055166;28;20306;-73
2023/02/04 02:57:49;;;;;;;1.00;1.00;;;11.00;99.90;;;;;;5051831;28;20314;-73
2023/02/04 03:00:22;;;;;;;0.98;0.98;;;11.00;99.90;;;;;;5034854;28;20219;-73
2023/02/04 03:02:57;;;;;;;1.02;1.02;;;11.00;99.90;;;;;;5048015;28;20290;-73
2023/02/04 03:05:25;;;;;;;1.00;1.00;;;10.90;99.90;;;;;;5017837;28;20226;-73
2023/02/04 03:07:52;;;;;;;1.13;1.13;;;10.90;99.90;;;;;;5055385;28;20306;-74
2023/02/04 03:10:19;;;;;;;1.10;1.10;;;10.80;99.90;;;;;;5052395;28;20302;-74
2023/02/04 03:12:47;;;;;;;0.90;0.90;;;10.80;99.90;;;;;;5048641;28;20290;-74
2023/02/04 03:15:15;;;;;;;0.88;0.88;;;10.70;99.90;;;;;;5034684;28;20309;-74
2023/02/04 03:17:44;;;;;;;1.00;1.00;;;10.70;99.90;;;;;;5048255;28;20926;-74
2023/02/04 03:20:13;;;;;;;0.90;0.90;;;10.70;99.90;;;;;;5054163;28;20221;-74
2023/02/04 03:22:41;;;;;;;1.00;1.00;;;10.60;99.90;;;;;;5053079;28;20290;-74
2023/02/04 03:25:08;;;;;;;0.80;0.80;;;10.60;99.90;;;;;;5048870;28;20310;-74
2023/02/04 03:27:35;;;;;;;1.08;1.08;;;10.60;99.90;;;;;;5050240;28;20214;-75
2023/02/04 03:30:03;;;;;;;0.95;0.95;;;10.50;99.90;;;;;;5058185;28;20638;-75
2023/02/04 03:32:30;;;;;;;0.82;0.82;;;10.50;99.90;;;;;;5053136;28;20237;-75
2023/02/04 03:34:58;;;;;;;0.90;0.90;;;10.40;99.90;;;;;;5050730;28;20301;-73
2023/02/04 03:37:25;;;;;;;0.82;0.82;;;10.40;99.90;;;;;;5049755;28;20294;-75
2023/02/04 03:39:52;;;;;;;1.10;1.10;;;10.40;99.90;;;;;;5051787;28;20242;-75
2023/02/04 03:42:19;;;;;;;0.85;0.85;;;10.40;99.90;;;;;;5055143;28;20282;-75
2023/02/04 03:44:46;;;;;;;1.05;1.05;;;10.40;99.90;;;;;;5054960;28;20305;-74
2023/02/04 03:47:13;;;;;;;1.17;1.17;;;10.40;99.90;;;;;;5015469;28;20222;-75
2023/02/04 03:49:40;;;;;;;0.95;0.95;;;10.40;99.90;;;;;;5057807;28;20302;-75
2023/02/04 03:52:09;;;;;;;1.25;1.25;;;10.40;99.90;;;;;;5056995;28;20278;-73
2023/02/04 03:54:36;;;;;;;1.08;1.08;;;10.40;99.90;;;;;;5054903;28;20329;-75
2023/02/04 03:57:03;;;;;;;5.28;1.00;;;10.40;99.90;;;;;;5032232;28;20218;-74
2023/02/04 03:59:30;;;;;;;0.80;0.80;;;10.40;99.90;;;;;;5052182;28;20817;-75
2023/02/04 04:01:57;;;;;;;1.13;1.13;;;10.40;99.90;;;;;;5060480;28;20743;-75
2023/02/04 04:04:24;;;;;;;0.90;0.90;;;10.40;99.90;;;;;;5043211;28;20199;-76
2023/02/04 04:06:51;;;;;;;0.80;0.80;;;10.40;99.90;;;;;;5052421;28;20723;-75
2023/02/04 04:09:19;;;;;;;0.95;0.82;;;10.30;99.90;;;;;;5054320;28;20294;-75
2023/02/04 04:11:46;;;;;;;1.00;1.00;;;10.40;99.90;;;;;;5053602;28;20282;-73
2023/02/04 04:14:13;;;;;;;1.15;1.15;;;10.30;99.90;;;;;;5053549;28;20282;-74
2023/02/04 04:16:40;;;;;;;0.95;0.95;;;10.30;99.90;;;;;;5058664;28;20268;-74
2023/02/04 04:19:08;;;;;;;1.17;1.17;;;10.30;99.90;;;;;;5052292;28;20661;-75
2023/02/04 04:21:35;;;;;;;1.10;1.10;;;10.20;99.90;;;;;;5032939;28;20302;-75
2023/02/04 04:24:02;;;;;;;1.10;1.10;;;10.20;99.90;;;;;;5035045;28;20466;-74
2023/02/04 04:26:30;;;;;;;1.08;1.08;;;10.20;99.90;;;;;;5056252;28;20301;-75
2023/02/04 04:28:57;;;;;;;1.10;1.10;;;10.20;99.90;;;;;;5056838;28;20282;-75
2023/02/04 04:31:25;;;;;;;1.20;1.20;;;10.10;99.90;;;;;;5052009;28;20210;-75
2023/02/04 04:33:51;;;;;;;1.10;1.10;;;10.20;99.90;;;;;;5047284;28;20282;-75
2023/02/04 04:36:18;;;;;;;1.00;1.00;;;10.10;99.90;;;;;;5051901;28;20687;-74
2023/02/04 04:38:45;;;;;;;1.08;1.08;;;10.10;99.90;;;;;;5059869;28;20293;-76
2023/02/04 04:41:13;;;;;;;1.30;1.30;;;10.10;99.90;;;;;;5050382;28;20301;-75
2023/02/04 04:43:41;;;;;;;1.00;1.00;;;10.10;99.90;;;;;;5054829;28;20275;-74
2023/02/04 04:46:08;;;;;;;1.30;1.20;;;10.10;99.90;;;;;;5055659;28;20314;-74
2023/02/04 04:48:35;;;;;;;1.05;1.05;;;10.10;99.90;;;;;;5041035;28;20207;-73
2023/02/04 04:51:02;;;;;;;0.95;0.95;;;10.10;99.90;;;;;;5044492;28;20312;-73
2023/02/04 04:53:30;;;;;;;1.27;1.10;;;10.00;99.90;;;;;;5046323;28;20196;-74
2023/02/04 04:55:57;;;;;;;1.00;1.00;;;10.10;99.90;;;;;;5055555;28;20245;-73
2023/02/04 04:58:24;;;;;;;1.23;1.23;;;10.10;99.90;;;;;;5058336;28;20644;-72
2023/02/04 05:00:52;;;;;;;1.10;1.10;;;10.10;99.90;;;;;;5039355;28;20298;-73
2023/02/04 05:03:20;;;;;;;1.10;1.10;;;10.10;99.90;;;;;;5033307;28;20207;-75
2023/02/04 05:05:47;;;;;;;1.30;1.30;;;10.10;99.90;;;;;;5053526;28;20313;-73
2023/02/04 05:08:15;;;;;;;1.45;1.45;;;10.00;99.90;;;;;;5048628;28;20311;-73
2023/02/04 05:10:43;;;;;;;1.05;1.05;;;10.10;99.90;;;;;;5036364;28;20241;-73
2023/02/04 05:13:10;;;;;;;1.30;1.30;;;10.10;99.90;;;;;;5048520;28;20661;-73
2023/02/04 05:15:37;;;;;;;1.15;1.15;;;10.10;99.90;;;;;;5051780;28;20210;-75
2023/02/04 05:18:06;;;;;;;1.30;1.30;;;10.20;99.90;;;;;;5033905;28;20220;-74
2023/02/04 05:20:33;;;;;;;1.10;1.10;;;10.20;99.90;;;;;;5049131;28;20321;-74
2023/02/04 05:23:01;;;;;;;1.00;1.00;;;10.30;99.90;;;;;;5048258;28;20229;-74
2023/02/04 05:25:29;;;;;;;1.10;1.10;;;10.30;99.90;;;;;;5046945;28;20211;-74
2023/02/04 05:27:55;;;;;;;1.20;1.20;;;10.30;99.90;;;;;;5053389;28;20622;-74
2023/02/04 05:30:23;;;;;;;1.20;1.20;;;10.30;99.90;;;;;;5046428;28;21442;-74
2023/02/04 05:32:50;;;;;;;1.10;1.10;;;10.20;99.90;;;;;;5051722;28;20297;-73
2023/02/04 05:35:19;;;;;;;1.10;1.10;;;10.20;99.90;;;;;;5056818;28;20307;-73
2023/02/04 05:37:46;;;;;;;1.23;1.23;;;10.20;99.90;;;;;;5031669;28;20306;-74
2023/02/04 05:40:14;;;;;;;1.10;1.10;;;10.30;99.90;;;;;;5044733;28;20328;-73
2023/02/04 05:42:41;;;;;;;1.40;1.40;;;10.30;99.90;;;;;;5043507;28;20282;-74
2023/02/04 05:45:13;;;;;;;1.27;1.27;;;10.30;99.90;;;;;;5055349;28;20222;-73
2023/02/04 05:47:40;;;;;;;1.30;1.30;;;10.30;99.90;;;;;;5051639;28;20636;-74
2023/02/04 05:50:08;;;;;;;1.27;1.27;;;10.30;99.90;;;;;;5048737;28;20298;-74
2023/02/04 05:52:37;;;;;;;1.42;1.42;;;10.30;99.90;;;;;;5045383;28;20291;-74
2023/02/04 05:55:04;;;;;;;1.25;1.25;;;10.20;99.90;;;;;;5032184;28;20228;-73
2023/02/04 05:57:31;;;;;;;1.02;1.02;;;10.20;99.90;;;;;;5052344;28;20301;-74
2023/02/04 05:59:58;;;;;;;1.27;1.27;;;10.20;99.90;;;;;;5049637;28;20301;-74
2023/02/04 06:02:25;;;;;;;1.10;1.10;;;10.20;99.90;;;;;;5044163;28;20278;-74
2023/02/04 06:04:52;;;;;;;1.30;1.30;;;10.30;99.90;;;;;;5051327;28;20305;-74
2023/02/04 06:07:19;;;;;;;1.30;1.30;;;10.40;99.90;;;;;;5047614;28;20299;-74
2023/02/04 06:09:49;;;;;;;1.20;1.20;;;10.40;99.90;;;;;;5056150;28;20639;-74
2023/02/04 06:12:16;;;;;;;1.60;1.50;;;10.30;99.90;;;;;;5043825;28;20397;-74
2023/02/04 06:14:43;;;;;;;1.40;1.40;;;10.00;99.90;;;;;;5052587;28;20326;-73
2023/02/04 06:17:10;;;;;;;1.63;1.10;;;9.70;99.90;;;;;;5031640;28;20225;-74
2023/02/04 06:19:38;;;;;;;1.30;1.30;;;9.40;99.90;;;;;;5053822;28;20234;-74
2023/02/04 06:22:04;;;;;;;1.50;1.40;;;9.20;99.90;;;;;;5025048;28;20289;-74
2023/02/04 06:24:31;;;;;;;1.60;1.30;;;9.10;99.90;;;;;;5054327;28;20293;-73
2023/02/04 06:27:00;;;;;;;1.52;1.52;;;9.10;99.90;;;;;;5049766;28;20310;-73
2023/02/04 06:29:27;;;;;;;1.27;1.27;;;9.00;99.90;;;;;;5048499;28;20290;-73
2023/02/04 06:31:54;;;;;;;1.42;1.33;;;9.00;99.90;;;;;;5053564;28;20755;-73
2023/02/04 06:34:21;;;;;;;1.30;1.30;;;9.00;99.90;;;;;;5055283;28;20287;-74
2023/02/04 06:36:48;;;;;;;1.35;1.30;;;8.90;99.90;;;;;;5050449;28;20294;-74
2023/02/04 06:39:14;;;;;;;1.50;1.50;;;8.90;99.90;;;;;;5054119;28;20286;-75
2023/02/04 06:41:42;;;;;;;1.58;1.55;;;8.80;99.90;;;;;;5035821;28;20202;-73
2023/02/04 06:44:10;;;;;;;2.15;2.05;;;8.80;99.90;;;;;;5052766;28;20286;-77
2023/02/04 06:46:38;;;;;;;1.38;1.38;;;8.80;99.90;;;;;;5050425;28;20249;-74
2023/02/04 06:49:05;;;;;;;1.70;1.65;;;8.80;99.90;;;;;;5054349;28;20282;-74
2023/02/04 06:51:33;;;;;;;1.63;1.52;;;8.70;99.90;;;;;;5049209;28;20306;-73
2023/02/04 06:54:00;;;;;;;1.73;1.67;;;8.70;99.90;;;;;;5034662;28;20202;-74
2023/02/04 06:56:28;;;;;;;1.60;1.60;;;8.70;99.90;;;;;;5051351;28;20313;-73
2023/02/04 06:58:55;;;;;;;1.63;1.52;;;8.80;99.90;;;;;;5036836;28;20595;-73
2023/02/04 07:01:24;;;;;;;1.95;1.85;;;8.80;99.90;;;;;;5052069;28;20305;-73
2023/02/04 07:03:51;;;;;;;1.73;1.67;;;8.90;99.90;;;;;;5054598;28;20287;-73
2023/02/04 07:06:18;;;;;;;1.73;1.63;;;8.90;99.90;;;;;;5048530;28;20297;-72
2023/02/04 07:08:46;;;;;;;1.40;1.40;;;8.90;99.90;;;;;;5051005;28;20286;-74
2023/02/04 07:11:13;;;;;;;1.95;1.85;;;9.00;99.90;;;;;;5051508;28;20221;-74
2023/02/04 07:13:40;;;;;;;1.63;1.63;;;9.00;99.90;;;;;;5053683;28;20285;-74
2023/02/04 07:16:08;;;;;;;1.60;1.50;;;9.00;99.90;;;;;;5038706;28;22539;-73
2023/02/04 07:18:36;;;;;;;1.83;1.73;;;9.00;99.90;;;;;;5052785;28;20229;-73
2023/02/04 07:21:04;;;;;;;2.00;1.90;;;9.10;99.90;;;;;;5051217;28;20290;-72
2023/02/04 07:23:31;;;;;;;2.00;1.70;;;9.30;99.90;;;;;;5050655;28;20285;-72
2023/02/04 07:25:58;;;;;;;1.70;1.60;;;9.30;99.90;;;;;;5055176;28;20257;-73
2023/02/04 07:28:25;;;;;;;1.50;1.50;;;9.30;99.90;;;;;;5036982;28;20203;-73
2023/02/04 07:30:52;;;;;;;1.70;1.60;;;9.50;99.90;;;;;;5050250;28;20247;-73
2023/02/04 07:33:19;;;;;;;1.80;1.75;;;9.90;99.90;;;;;;5032367;28;20198;-74
2023/02/04 07:35:48;;;;;;;1.60;1.60;;;10.20;99.90;;;;;;5050242;28;20310;-73
2023/02/04 07:38:15;;;;;;;1.40;1.40;;;10.40;99.90;;;;;;5050126;28;20313;-74
2023/02/04 07:40:42;;;;;;;1.60;1.60;;;10.70;99.90;;;;;;5037215;28;20214;-74
2023/02/04 07:43:09;;;;;;;1.92;1.83;;;11.20;98.60;;;;;;5054775;28;20221;-74
2023/02/04 07:45:36;;;;;;;1.80;1.70;;;11.80;98.10;;;;;;5024938;28;20226;-74
2023/02/04 07:48:03;;;;;;;1.70;1.60;;;12.70;95.20;;;;;;5039152;28;20218;-74
2023/02/04 07:50:30;;;;;;;1.73;1.63;;;13.50;93.70;;;;;;5050435;28;20313;-73
2023/02/04 07:52:59;;;;;;;1.88;1.30;;;14.20;92.60;;;;;;5039256;28;20289;-73
2023/02/04 07:55:26;;;;;;;1.50;1.40;;;14.70;90.50;;;;;;5030966;28;20693;-73
2023/02/04 07:57:53;;;;;;;1.50;1.42;;;15.10;90.10;;;;;;5047751;28;20712;-75
2023/02/04 08:00:21;;;;;;;1.40;1.30;;;15.50;86.70;;;;;;5052117;28;20799;-74
2023/02/04 08:02:48;;;;;;;1.10;1.10;;;15.60;85.00;;;;;;5049937;28;20278;-74
2023/02/04 08:05:15;;;;;;;1.50;1.20;;;15.80;84.00;;;;;;5038597;28;20222;-74
2023/02/04 08:07:44;;;;;;;1.50;1.00;;;16.10;82.10;;;;;;5046082;28;20305;-74
2023/02/04 08:10:13;;;;;;;1.60;0.80;;;16.20;79.50;;;;;;5054550;28;20276;-74
2023/02/04 08:12:40;;;;;;;1.30;1.17;;;16.20;77.30;;;;;;5035664;28;20201;-74
2023/02/04 08:15:08;;;;;;;0.98;0.98;;;16.40;76.40;;;;;;5056575;28;20302;-74
2023/02/04 08:17:35;;;;;;;1.00;1.00;;;16.60;77.10;;;;;;5051215;28;20229;-73
2023/02/04 08:20:02;;;;;;;1.02;0.82;;;16.80;76.60;;;;;;5055430;28;20298;-73
2023/02/04 08:22:29;;;;;;;0.80;0.80;;;16.90;75.20;;;;;;5050116;28;20933;-74
2023/02/04 08:24:56;;;;;;;1.00;1.00;;;17.00;74.20;;;;;;5038126;28;20302;-74
2023/02/04 08:27:24;;;;;;;1.05;1.00;;;17.10;71.20;;;;;;5050331;28;20254;-74
2023/02/04 08:29:51;;;;;;;0.75;0.75;;;17.30;72.50;;;;;;5047334;28;20293;-74
2023/02/04 08:32:18;;;;;;;0.70;0.70;;;17.40;70.70;;;;;;5059497;28;20309;-74
2023/02/04 08:34:47;;;;;;;1.00;0.90;;;17.60;70.70;;;;;;5052124;28;20269;-74
2023/02/04 08:37:15;;;;;;;0.90;0.90;;;17.60;69.10;;;;;;5054982;28;20746;-74
2023/02/04 08:39:45;;;;;;;1.30;1.20;;;17.60;69.00;;;;;;5041651;28;20215;-75
2023/02/04 08:42:12;;;;;;;1.35;1.05;;;17.60;67.90;;;;;;5054609;28;20229;-75
2023/02/04 08:44:40;;;;;;;0.82;0.82;;;17.60;67.20;;;;;;5049106;28;20246;-74
2023/02/04 08:47:07;;;;;;;1.58;1.05;;;17.60;66.70;;;;;;5052053;28;20718;-74
2023/02/04 08:49:34;;;;;;;0.85;0.85;;;17.80;67.80;;;;;;5051639;28;20313;-74
2023/02/04 08:52:03;;;;;;;0.70;0.70;;;17.90;66.00;;;;;;5053018;28;20339;-75
2023/02/04 08:54:30;;;;;;;0.93;0.93;;;18.00;66.00;;;;;;5048495;28;20225;-75
2023/02/04 08:56:57;;;;;;;1.70;0.80;;;18.10;65.10;;;;;;5047622;28;20250;-75
2023/02/04 08:59:24;;;;;;;1.00;1.00;;;18.30;65.40;;;;;;5047676;28;20290;-75
2023/02/04 09:01:53;;;;;;;7.30;0.90;;;18.30;64.40;;;;;;5059608;28;20226;-73
2023/02/04 09:04:21;;;;;;;1.17;0.80;;;18.30;64.10;;;;;;5032509;28;20295;-75
2023/02/04 09:06:49;;;;;;;0.93;0.93;;;18.50;63.80;;;;;;5050536;28;20221;-74
2023/02/04 09:09:17;;;;;;;1.30;1.20;;;18.50;63.10;;;;;;5046774;28;20650;-74
2023/02/04 09:11:44;;;;;;;1.88;0.80;;;18.70;62.40;;;;;;5045853;28;20274;-74
2023/02/04 09:14:12;;;;;;;0.90;0.90;;;18.70;62.30;;;;;;5052921;28;20651;-75
2023/02/04 09:16:39;;;;;;;1.92;1.83;;;18.50;59.50;;;;;;5050330;28;20302;-74
2023/02/04 09:19:09;;;;;;;1.20;1.10;;;18.50;59.50;;;;;;5049446;28;20281;-75
2023/02/04 09:21:36;;;;;;;0.80;0.80;;;18.70;61.10;;;;;;5049780;28;20243;-73
2023/02/04 09:24:04;;;;;;;0.90;0.90;;;18.90;60.40;;;;;;5052346;28;20277;-75
2023/02/04 09:26:30;;;;;;;0.90;0.90;;;18.90;59.80;;;;;;5044481;28;20297;-74
2023/02/04 09:28:57;;;;;;;0.73;0.73;;;19.00;59.40;;;;;;5050691;28;20241;-74
2023/02/04 09:31:24;;;;;;;0.85;0.70;;;18.80;58.40;;;;;;5050028;28;20765;-74
2023/02/04 09:33:51;;;;;;;1.95;1.00;;;18.80;58.50;;;;;;5021277;28;20201;-74
2023/02/04 09:36:20;;;;;;;0.73;0.73;;;19.00;58.90;;;;;;5044086;28;20338;-74
2023/02/04 09:38:47;;;;;;;0.68;0.68;;;19.70;58.10;;;;;;5024043;28;20222;-74
2023/02/04 09:41:15;;;;;;;0.70;0.70;;;20.70;55.80;;;;;;5047063;28;20242;-75
2023/02/04 09:43:45;;;;;;;0.70;0.70;;;21.60;52.80;;;;;;5061972;28;20285;-74
2023/02/04 09:46:20;;;;;;;0.70;0.70;;;22.00;51.80;;;;;;5053546;28;20215;-74
2023/02/04 09:48:47;;;;;;;0.73;0.73;;;21.50;50.80;;;;;;5036826;28;20198;-74
2023/02/04 09:51:18;;;;;;;0.85;0.85;;;21.10;52.00;;;;;;5054235;28;20250;-74
2023/02/04 09:53:48;;;;;;;0.90;0.90;;;20.70;53.10;;;;;;5058155;28;20280;-74
2023/02/04 09:56:16;;;;;;;0.80;0.80;;;20.40;53.60;;;;;;5052148;28;20334;-74
2023/02/04 09:58:43;;;;;;;1.10;1.00;;;20.20;53.50;;;;;;5054073;28;20660;-74
2023/02/04 10:01:15;;;;;;;2.97;1.00;;;20.00;53.30;;;;;;5040301;28;20225;-74
2023/02/04 10:03:46;;;;;;;0.75;0.75;;;19.80;53.30;;;;;;5058689;28;20198;-75
2023/02/04 10:06:15;;;;;;;2.05;1.10;;;19.80;54.00;;;;;;5052914;28;20245;-75
2023/02/04 10:08:43;;;;;;;0.90;0.90;;;20.00;53.40;;;;;;5055443;28;20233;-75
2023/02/04 10:11:12;;;;;;;0.98;0.98;;;20.10;52.00;;;;;;5037167;28;20304;-74
2023/02/04 10:13:43;;;;;;;1.05;1.05;;;20.00;52.60;;;;;;5045487;28;20297;-74
2023/02/04 10:16:15;;;;;;;0.95;0.90;;;20.20;53.40;;;;;;5055769;28;20246;-74
2023/02/04 10:18:43;;;;;;;0.73;0.73;;;20.30;52.50;;;;;;5056766;28;20281;-74
2023/02/04 10:21:17;;;;;;;1.17;1.08;;;20.20;52.80;;;;;;5047512;28;20314;-74
2023/02/04 10:23:47;;;;;;;1.10;1.00;;;20.30;52.40;;;;;;5054966;28;20281;-74
2023/02/04 10:26:17;;;;;;;1.63;0.73;;;20.20;52.00;;;;;;5057038;28;20216;-74
2023/02/04 10:28:44;;;;;;;0.80;0.80;;;20.00;51.50;;;;;;5048890;28;20606;-74
2023/02/04 10:31:36;;;;;;;0.82;0.82;;;20.00;51.80;;;;;;5043929;28;20211;-74
2023/02/04 10:34:12;;;;;;;3.78;0.95;;;20.00;50.80;;;;;;5025170;28;20191;-74
2023/02/04 10:36:40;;;;;;;0.95;0.95;;;20.10;50.60;;;;;;5041090;28;20743;-75
2023/02/04 10:39:12;;;;;;;1.17;1.10;;;20.00;50.60;;;;;;5046000;28;20238;-75
2023/02/04 10:41:45;;;;;;;0.80;0.80;;;20.00;50.50;;;;;;5041519;28;20290;-73
2023/02/04 10:44:14;;;;;;;0.88;0.65;;;20.10;49.40;;;;;;5042031;28;20295;-74
2023/02/04 10:46:41;;;;;;;0.70;0.70;;;20.10;49.60;;;;;;5052989;28;20301;-74
2023/02/04 10:49:18;;;;;;;0.60;0.60;;;20.00;49.50;;;;;;5044202;28;20308;-74
2023/02/04 10:51:46;;;;;;;0.70;0.70;;;20.10;49.60;;;;;;5049554;28;20297;-75
2023/02/04 10:54:33;;;;;;;0.70;0.63;;;20.00;48.70;;;;;;5045822;28;20278;-75
2023/02/04 10:57:08;;;;;;;1.60;1.45;;;20.20;49.00;;;;;;5050666;28;20353;-74
2023/02/04 10:59:36;;;;;;;0.80;0.80;;;20.40;48.70;;;;;;5045503;28;20267;-74
2023/02/04 11:02:32;;;;;;;0.70;0.70;;;20.50;49.30;;;;;;5050234;28;20277;-75
2023/02/04 11:05:00;;;;;;;1.02;1.02;;;20.50;49.30;;;;;;5029030;28;20576;-74
2023/02/04 11:07:27;;;;;;;0.93;0.93;;;20.50;48.70;;;;;;5046396;28;20309;-74
2023/02/04 11:09:55;;;;;;;1.50;1.40;;;20.60;47.40;;;;;;5048102;28;20226;-74
2023/02/04 11:12:37;;;;;;;3.15;1.30;;;20.40;46.90;;;;;;5040184;28;20655;-74
2023/02/04 11:15:06;;;;;;;1.10;1.00;;;20.40;46.80;;;;;;5031242;28;20571;-74
2023/02/04 11:17:35;;;;;;;1.20;1.17;;;20.30;46.80;;;;;;5046852;28;20245;-74
2023/02/04 11:20:14;;;;;;;1.80;1.70;;;20.30;47.00;;;;;;5042631;28;20304;-74
2023/02/04 11:22:43;;;;;;;2.15;2.05;;;20.50;47.20;;;;;;5046320;28;20202;-75
2023/02/04 11:25:32;;;;;;;2.25;1.20;;;21.00;47.50;;;;;;5046762;28;20225;-74
2023/02/04 11:28:00;;;;;;;1.02;0.95;;;21.20;45.70;;;;;;5046437;28;20250;-74
2023/02/04 11:30:32;;;;;;;1.02;0.98;;;20.90;45.40;;;;;;5045071;28;20290;-74
2023/02/04 11:33:03;;;;;;;1.02;0.90;;;20.60;45.50;;;;;;5048736;28;20687;-74
2023/02/04 11:35:30;;;;;;;1.08;1.08;;;20.60;45.40;;;;;;5050952;28;20663;-74
2023/02/04 11:37:58;;;;;;;0.90;0.88;;;20.60;44.20;;;;;;5027236;28;20793;-74
2023/02/04 11:40:28;;;;;;;0.98;0.90;;;20.50;45.20;;;;;;5044832;28;20245;-74
2023/02/04 11:43:03;;;;;;;1.00;0.90;;;20.70;45.50;;;;;;5056134;28;20230;-74
2023/02/04 11:45:33;;;;;;;0.70;0.70;;;20.60;45.00;;;;;;5051619;28;20325;-74
2023/02/04 11:48:03;;;;;;;1.50;1.40;;;20.30;43.90;;;;;;5050725;28;20632;-74
2023/02/04 11:50:32;;;;;;;0.70;0.70;;;20.30;45.00;;;;;;5029676;28;20743;-75
2023/02/04 11:53:01;;;;;;;0.65;0.65;;;20.30;44.90;;;;;;5037259;28;20660;-75
2023/02/04 11:55:29;;;;;;;0.60;0.60;;;20.30;44.60;;;;;;5047997;28;20234;-74
2023/02/04 11:57:57;;;;;;;0.75;0.70;;;20.40;43.00;;;;;;5030544;28;20432;-74
2023/02/04 12:00:28;;;;;;;0.77;0.77;;;20.40;43.90;;;;;;5051022;28;20310;-74
2023/02/04 12:02:58;;;;;;;0.57;0.57;;;20.40;44.50;;;;;;5052511;28;20207;-73
2023/02/04 12:05:39;;;;;;;0.68;0.68;;;20.50;44.00;;;;;;5047308;28;20335;-75
2023/02/04 12:08:11;;;;;;;1.17;0.88;;;20.60;43.70;;;;;;5035553;28;20218;-75
2023/02/04 12:10:38;;;;;;;0.82;0.82;;;20.50;43.80;;;;;;5057256;28;20211;-75
2023/02/04 12:13:16;;;;;;;0.80;0.80;;;20.40;43.50;;;;;;5050923;28;20214;-76
2023/02/04 12:15:54;;;;;;;0.75;0.75;;;20.40;43.80;;;;;;5037332;28;20211;-76
2023/02/04 12:18:21;;;;;;;0.65;0.65;;;20.40;43.50;;;;;;5059235;28;20286;-75
2023/02/04 12:20:48;;;;;;;0.60;0.60;;;20.40;43.50;;;;;;5037715;28;20250;-75
2023/02/04 12:23:15;;;;;;;0.63;0.63;;;20.40;43.20;;;;;;5030576;28;20200;-75
2023/02/04 12:25:42;;;;;;;1.05;0.60;;;20.20;43.30;;;;;;5053536;28;20298;-76
2023/02/04 12:28:09;;;;;;;0.70;0.70;;;20.20;43.50;;;;;;5060873;28;20308;-76
2023/02/04 12:30:36;;;;;;;2.50;0.60;;;20.20;43.20;;;;;;5030831;28;20301;-75
2023/02/04 12:33:06;;;;;;;2.42;0.63;;;20.20;43.40;;;;;;5053049;28;20641;-75
2023/02/04 12:35:33;;;;;;;0.65;0.60;;;20.20;42.90;;;;;;5041004;28;20819;-75
2023/02/04 12:38:00;;;;;;;1.20;0.80;;;20.10;42.40;;;;;;5052551;28;20245;-75
2023/02/04 12:40:27;;;;;;;0.70;0.70;;;19.90;42.90;;;;;;5031917;28;20318;-74
2023/02/04 12:42:54;;;;;;;1.17;0.82;;;19.90;43.00;;;;;;5043670;28;20286;-75
2023/02/04 12:45:22;;;;;;;0.60;0.60;;;19.90;43.00;;;;;;5053662;28;20638;-75
2023/02/04 12:47:49;;;;;;;0.63;0.63;;;19.90;42.90;;;;;;5031392;28;20257;-75
2023/02/04 12:50:21;;;;;;;1.50;0.70;;;19.90;42.40;;;;;;5043550;28;20318;-75
2023/02/04 12:52:49;;;;;;;0.77;0.77;;;19.80;42.70;;;;;;5037291;28;20199;-74